Time;durP1;ratioP1;P1;durP2;ratioP2;P2;SDS_P1;SDS_P2;PMS_P1;PMS_P2;Temp;Humidity;BMP_temperature;BMP_pressure;BME280_temperature;BME280_humidity;BME280_pressure;Samples;Min_cycle;Max_cycle;Signal;HPM_P1;HPM_P2
2023/10/13 00:02:27;;;;;;;14.63;11.18;;;19.20;99.90;;;19.55;100.00;100996.00;5072210;28;20045;-77
2023/10/13 00:04:56;;;;;;;14.18;10.20;;;19.20;99.90;;;19.52;100.00;100998.78;5071875;28;20094;-77
2023/10/13 00:07:25;;;;;;;12.07;10.18;;;19.20;99.90;;;19.65;100.00;101000.03;5072436;28;20153;-78
2023/10/13 00:09:53;;;;;;;14.80;10.75;;;19.20;99.90;;;19.61;100.00;100999.28;5072754;28;20090;-77
2023/10/13 00:12:23;;;;;;;12.48;10.30;;;19.20;99.90;;;19.66;100.00;100999.13;5071343;28;20048;-77
2023/10/13 00:14:53;;;;;;;14.23;11.30;;;19.20;99.90;;;19.64;100.00;100976.84;5071596;28;20553;-77
2023/10/13 00:17:24;;;;;;;16.25;12.77;;;19.30;99.90;;;19.59;100.00;100984.16;5070801;28;20084;-77
2023/10/13 00:19:53;;;;;;;17.98;14.38;;;19.20;99.90;;;19.58;100.00;100986.00;5071698;28;20041;-78
2023/10/13 00:22:22;;;;;;;20.55;14.20;;;19.20;99.90;;;19.60;100.00;100989.50;5071855;28;20098;-79
2023/10/13 00:24:58;;;;;;;20.90;16.33;;;19.20;99.90;;;19.64;100.00;100976.84;5071693;28;20045;-78
2023/10/13 00:27:30;;;;;;;20.30;15.05;;;19.20;99.90;;;19.59;100.00;100965.38;5070024;28;20491;-77
2023/10/13 00:30:20;;;;;;;21.80;17.35;;;19.20;99.90;;;19.60;100.00;100972.53;5071763;28;20056;-78
2023/10/13 00:32:54;;;;;;;21.47;16.57;;;19.20;99.90;;;19.54;100.00;100968.28;5070492;28;20139;-77
2023/10/13 00:35:28;;;;;;;26.83;17.40;;;19.20;99.90;;;19.65;100.00;100962.47;5070464;28;20294;-75
2023/10/13 00:37:59;;;;;;;24.27;16.90;;;19.20;99.90;;;19.59;100.00;100966.28;5071888;28;20428;-77
2023/10/13 00:40:44;;;;;;;24.33;17.95;;;19.20;99.90;;;19.60;100.00;100953.72;5070372;28;20040;-77
2023/10/13 00:46:12;;;;;;;24.33;18.27;;;19.20;99.90;;;19.43;100.00;100937.44;5071840;28;20056;-77
2023/10/13 00:48:43;;;;;;;21.65;18.45;;;19.20;99.90;;;19.50;100.00;100937.13;5067472;28;20060;-77
2023/10/13 00:51:22;;;;;;;23.52;17.55;;;19.10;99.90;;;19.47;100.00;100934.53;5054104;28;20500;-77
2023/10/13 00:53:50;;;;;;;23.35;17.77;;;19.10;99.90;;;19.52;100.00;100942.44;5071435;28;20136;-77
2023/10/13 00:56:26;;;;;;;24.45;17.80;;;19.10;99.90;;;19.56;100.00;100944.94;5071313;28;20040;-78
2023/10/13 00:58:57;;;;;;;24.30;16.00;;;19.20;99.90;;;19.51;100.00;100925.44;5074676;28;20074;-78
2023/10/13 01:01:32;;;;;;;23.15;16.10;;;19.20;99.90;;;19.50;100.00;100925.50;5075388;28;20057;-77
2023/10/13 01:04:04;;;;;;;21.13;15.57;;;19.10;99.90;;;19.54;100.00;100919.09;5075053;28;20082;-77
2023/10/13 01:06:33;;;;;;;23.42;15.48;;;19.10;99.90;;;19.53;100.00;100917.34;5074637;28;20048;-77
2023/10/13 01:09:11;;;;;;;17.23;13.90;;;19.20;99.90;;;19.49;100.00;100911.22;5074861;28;20094;-77
2023/10/13 01:11:42;;;;;;;22.52;14.02;;;19.10;99.90;;;19.41;100.00;100912.47;5075061;28;20044;-79
2023/10/13 01:14:11;;;;;;;19.17;13.00;;;19.10;99.90;;;19.40;100.00;100903.53;5087521;28;20080;-78
2023/10/13 01:16:44;;;;;;;20.45;13.73;;;19.00;99.90;;;19.39;100.00;100903.63;5073287;28;20393;-79
2023/10/13 01:19:14;;;;;;;19.27;13.48;;;19.00;99.90;;;19.43;100.00;100902.56;5073896;28;20048;-76
2023/10/13 01:21:44;;;;;;;19.60;15.13;;;19.00;99.90;;;19.40;100.00;100905.34;5075144;28;20132;-78
2023/10/13 01:24:23;;;;;;;19.92;14.13;;;19.00;99.90;;;19.45;100.00;100896.16;5075050;28;20048;-77
2023/10/13 01:26:54;;;;;;;23.90;15.70;;;19.10;99.90;;;19.39;100.00;100885.72;5060529;28;20105;-78
2023/10/13 01:29:28;;;;;;;18.50;15.93;;;19.00;99.90;;;19.39;100.00;100890.19;5070194;28;20131;-78
2023/10/13 01:31:57;;;;;;;21.27;14.38;;;19.00;99.90;;;19.40;100.00;100887.44;5069935;28;20079;-79
2023/10/13 01:34:25;;;;;;;22.75;15.10;;;19.00;99.90;;;19.40;100.00;100882.06;5074879;28;20136;-78
2023/10/13 01:36:55;;;;;;;23.85;15.93;;;19.00;99.90;;;19.40;100.00;100878.50;5070115;28;20171;-77
2023/10/13 01:39:28;;;;;;;;;;;19.00;99.90;;;19.28;100.00;100887.03;5066904;28;20045;-78
2023/10/13 01:41:56;;;;;;;24.77;15.88;;;19.10;99.90;;;19.41;100.00;100877.59;5074869;28;20058;-78
2023/10/13 01:44:26;;;;;;;23.13;15.35;;;19.00;99.90;;;19.31;100.00;100860.97;5058057;28;20052;-79
2023/10/13 01:46:55;;;;;;;20.47;14.80;;;19.00;99.90;;;19.41;100.00;100888.31;5074758;28;20044;-78
2023/10/13 01:49:22;;;;;;;20.63;13.93;;;19.00;99.90;;;19.40;100.00;100871.34;5073208;28;20044;-78
2023/10/13 01:51:51;;;;;;;18.25;13.95;;;19.00;99.90;;;19.41;100.00;100874.91;5069976;28;20128;-75
2023/10/13 01:54:21;;;;;;;18.27;14.05;;;19.00;99.90;;;19.41;100.00;100856.13;5069837;28;20084;-79
2023/10/13 01:56:50;;;;;;;19.83;13.60;;;19.00;99.90;;;19.31;100.00;100833.25;5062718;28;20036;-79
2023/10/13 01:59:18;;;;;;;19.47;13.33;;;19.00;99.90;;;19.29;100.00;100824.41;5069681;28;20053;-78
2023/10/13 02:01:47;;;;;;;18.27;13.15;;;19.00;99.90;;;19.36;100.00;100829.47;5072957;28;20052;-79
2023/10/13 02:04:14;;;;;;;20.30;12.98;;;19.00;99.90;;;19.34;100.00;100827.78;5072898;28;20041;-77
2023/10/13 02:06:43;;;;;;;17.45;12.65;;;19.00;99.90;;;19.31;100.00;100827.91;5072462;28;20072;-80
2023/10/13 02:09:12;;;;;;;20.80;12.80;;;18.90;99.90;;;19.30;100.00;100810.06;5073018;28;20335;-78
2023/10/13 02:11:46;;;;;;;14.98;12.43;;;19.00;99.90;;;19.41;100.00;100810.53;5072482;28;20054;-79
2023/10/13 02:14:17;;;;;;;18.15;12.32;;;19.00;99.90;;;19.43;100.00;100809.53;5072576;28;20389;-77
2023/10/13 02:16:49;;;;;;;18.90;13.00;;;19.00;99.90;;;19.44;100.00;100799.66;5072604;28;20509;-78
2023/10/13 02:19:19;;;;;;;17.63;12.35;;;19.00;99.90;;;19.44;100.00;100813.06;5073919;28;20060;-77
2023/10/13 02:21:58;;;;;;;18.70;13.18;;;19.00;99.90;;;19.38;100.00;100807.94;5072570;28;20102;-78
2023/10/13 02:24:29;;;;;;;20.77;12.30;;;19.00;99.90;;;19.36;100.00;100809.81;5072434;28;20508;-78
2023/10/13 02:27:02;;;;;;;18.35;11.43;;;19.00;99.90;;;19.32;100.00;100794.75;5068903;28;20057;-79
2023/10/13 02:29:38;;;;;;;18.50;11.48;;;19.00;99.90;;;19.27;100.00;100783.34;5072245;28;20374;-78
2023/10/13 02:32:13;;;;;;;19.63;12.20;;;18.90;99.90;;;19.29;100.00;100778.81;5073144;28;20513;-78
2023/10/13 02:34:43;;;;;;;13.73;10.80;;;18.90;99.90;;;19.29;100.00;100766.28;5085407;28;20053;-77
2023/10/13 02:37:13;;;;;;;13.88;9.45;;;18.90;99.90;;;19.21;100.00;100738.00;5070079;28;20072;-80
2023/10/13 02:39:41;;;;;;;20.17;9.77;;;18.90;99.90;;;19.28;100.00;100752.94;5073249;28;20058;-78
2023/10/13 02:42:22;;;;;;;15.10;9.75;;;18.90;99.90;;;19.31;100.00;100760.84;5068837;28;20076;-80
2023/10/13 02:44:55;;;;;;;14.02;9.43;;;19.00;99.90;;;19.25;100.00;100734.25;5067792;28;20048;-77
2023/10/13 02:47:26;;;;;;;15.70;9.68;;;18.90;99.90;;;19.30;100.00;100745.69;5072761;28;20486;-80
2023/10/13 02:49:54;;;;;;;11.48;9.45;;;19.00;99.90;;;19.27;100.00;100745.81;5071618;28;20055;-79
2023/10/13 02:52:24;;;;;;;14.38;9.10;;;18.90;99.90;;;19.27;100.00;100740.44;5073237;28;20150;-78
2023/10/13 02:54:52;;;;;;;13.65;9.60;;;18.90;99.90;;;19.28;100.00;100742.19;5071877;28;20052;-78
2023/10/13 02:57:22;;;;;;;13.75;8.07;;;18.90;99.90;;;19.19;100.00;100737.19;5073042;28;20093;-78
2023/10/13 02:59:58;;;;;;;15.68;7.78;;;18.80;99.90;;;19.14;100.00;100731.16;5071473;28;20143;-78
2023/10/13 03:02:28;;;;;;;14.80;7.50;;;18.80;99.90;;;19.18;100.00;100722.06;5071620;28;20056;-79
2023/10/13 03:04:59;;;;;;;13.40;7.53;;;18.80;99.90;;;19.00;100.00;100682.59;5072695;28;20044;-78
2023/10/13 03:07:28;;;;;;;10.85;7.10;;;18.80;99.90;;;19.16;100.00;100697.13;5072939;28;20290;-77
2023/10/13 03:10:09;;;;;;;11.38;6.82;;;18.80;99.90;;;19.13;100.00;100683.81;5072454;28;20123;-77
2023/10/13 03:12:38;;;;;;;9.57;5.97;;;18.80;99.90;;;19.00;100.00;100675.44;5072378;28;20124;-79
2023/10/13 03:15:14;;;;;;;10.80;6.25;;;18.70;99.90;;;19.15;100.00;100671.22;5071938;28;20117;-76
2023/10/13 03:17:44;;;;;;;8.93;5.22;;;18.80;99.90;;;19.06;100.00;100672.50;5072044;28;20397;-78
2023/10/13 03:20:15;;;;;;;7.95;6.45;;;18.70;99.90;;;19.03;100.00;100653.00;5071995;28;20044;-76
2023/10/13 03:22:44;;;;;;;10.25;6.35;;;18.70;99.90;;;18.46;100.00;100555.34;5072394;28;20048;-77
2023/10/13 03:25:22;;;;;;;8.48;5.43;;;18.70;99.90;;;18.97;100.00;100651.41;5072206;28;20048;-76
2023/10/13 03:28:04;;;;;;;9.07;5.38;;;18.60;99.90;;;18.99;100.00;100629.94;5072056;28;20032;-76
2023/10/13 03:30:41;;;;;;;;;;;18.60;99.90;;;18.83;100.00;100630.56;5072400;28;20052;-76
2023/10/13 03:33:13;;;;;;;9.55;5.85;;;18.60;99.90;;;18.75;100.00;100624.66;5072077;28;20015;-77
2023/10/13 03:35:43;;;;;;;12.25;5.78;;;18.50;99.90;;;18.72;100.00;100616.75;5072137;28;20158;-76
2023/10/13 03:38:18;;;;;;;9.85;6.30;;;18.40;99.90;;;18.77;100.00;100620.13;5071678;28;20041;-77
2023/10/13 03:40:56;;;;;;;10.95;8.85;;;18.40;99.90;;;18.77;100.00;100632.63;5056529;28;20120;-78
2023/10/13 03:43:24;;;;;;;17.63;9.52;;;18.50;99.90;;;18.76;100.00;100604.09;5071729;28;20063;-78
2023/10/13 03:46:00;;;;;;;10.13;7.75;;;18.50;99.90;;;18.50;100.00;100594.47;5072043;28;20127;-78
2023/10/13 03:48:29;;;;;;;13.90;9.50;;;18.30;99.90;;;18.63;100.00;100593.03;5072463;28;20049;-77
2023/10/13 03:51:06;;;;;;;12.05;9.73;;;18.30;99.90;;;18.54;100.00;100593.38;5072249;28;20113;-77
2023/10/13 03:53:36;;;;;;;13.05;9.85;;;18.30;99.90;;;18.58;100.00;100597.69;5072188;28;20036;-77
2023/10/13 03:56:12;;;;;;;16.77;11.10;;;18.30;99.90;;;18.34;100.00;100563.84;5072351;28;20406;-78
2023/10/13 03:58:45;;;;;;;15.02;11.07;;;18.30;99.90;;;18.51;100.00;100606.91;5071956;28;20420;-77
2023/10/13 04:01:16;;;;;;;12.73;10.93;;;18.20;99.90;;;18.60;100.00;100576.22;5071259;28;20098;-77
2023/10/13 04:04:03;;;;;;;14.57;11.70;;;18.30;99.90;;;18.64;100.00;100588.53;5072294;28;20040;-77
2023/10/13 04:07:12;;;;;;;13.23;11.10;;;18.40;99.90;;;18.70;100.00;100578.41;5058211;28;20048;-77
2023/10/13 04:15:21;;;;;;;14.73;11.88;;;18.50;99.90;;;18.79;100.00;100553.91;5068524;28;20060;-77
2023/10/13 04:17:51;;;;;;;17.25;11.80;;;18.50;99.90;;;18.83;100.00;100576.94;5069317;28;20052;-79
2023/10/13 04:20:38;;;;;;;13.85;12.20;;;18.50;99.90;;;18.88;100.00;100568.72;5072353;28;20048;-78
2023/10/13 04:23:19;;;;;;;14.73;11.50;;;18.60;99.90;;;18.90;100.00;100567.72;5072050;28;20044;-77
2023/10/13 04:26:08;;;;;;;15.20;11.70;;;18.60;99.90;;;18.89;100.00;100552.56;5071897;28;20045;-77
2023/10/13 04:28:37;;;;;;;17.25;12.70;;;18.60;99.90;;;18.92;100.00;100532.81;5070848;28;20052;-77
2023/10/13 04:31:14;;;;;;;13.18;11.65;;;18.60;99.90;;;18.96;100.00;100552.31;5072708;28;20123;-76
2023/10/13 04:33:52;;;;;;;17.13;12.73;;;18.60;99.90;;;18.93;100.00;100531.84;5073729;28;20053;-78
2023/10/13 04:36:44;;;;;;;13.10;11.50;;;18.60;99.90;;;19.00;100.00;100543.19;5074690;28;20044;-78
2023/10/13 04:39:29;;;;;;;17.50;12.73;;;18.70;99.90;;;18.39;100.00;100411.00;5076083;28;20060;-79
2023/10/13 04:42:13;;;;;;;20.00;11.40;;;18.70;99.90;;;18.28;100.00;100403.44;5060313;28;20041;-78
2023/10/13 04:44:52;;;;;;;15.70;10.80;;;18.70;99.90;;;18.86;100.00;100520.56;5075041;28;20049;-79
2023/10/13 04:47:22;;;;;;;11.98;9.07;;;18.60;99.90;;;18.90;100.00;100507.88;5074952;28;20052;-78
2023/10/13 04:50:00;;;;;;;16.70;9.13;;;18.60;99.90;;;18.90;100.00;100537.38;5075146;28;20045;-78
2023/10/13 04:53:01;;;;;;;12.23;8.35;;;18.50;99.90;;;18.86;100.00;100522.34;5074132;28;20086;-79
2023/10/13 04:55:59;;;;;;;15.48;8.45;;;18.60;99.90;;;18.96;100.00;100517.44;5074257;28;20056;-79
2023/10/13 04:59:15;;;;;;;12.13;8.00;;;18.60;99.90;;;18.92;100.00;100504.19;5075415;28;20044;-78
2023/10/13 05:04:37;;;;;;;14.55;7.90;;;18.60;99.90;;;18.99;100.00;100488.69;5075414;28;20040;-78
2023/10/13 05:46:35;;;;;;;15.05;7.22;;;19.00;99.90;;;19.41;100.00;100426.91;5074700;28;20174;-81
2023/10/13 05:49:29;;;;;;;13.90;7.18;;;19.00;99.90;;;19.39;100.00;100426.09;5060062;28;20040;-80
2023/10/13 05:52:07;;;;;;;17.73;6.32;;;19.00;99.90;;;19.41;100.00;100416.16;5074206;28;20054;-79
2023/10/13 06:31:01;;;;;;;19.05;12.93;;;19.00;99.90;;;19.35;100.00;100362.81;5027631;28;20045;-74
2023/10/13 06:33:33;;;;;;;32.95;14.65;;;19.10;99.90;;;19.35;100.00;100344.91;5068232;28;20056;-75
2023/10/13 06:36:09;;;;;;;23.02;14.75;;;19.00;99.90;;;19.28;100.00;100358.66;5073528;28;20445;-75
2023/10/13 06:38:37;;;;;;;21.33;14.93;;;19.00;99.90;;;19.30;100.00;100338.84;5068894;28;20048;-75
2023/10/13 06:41:06;;;;;;;20.98;15.75;;;19.00;99.90;;;19.21;100.00;100327.69;5065820;28;20131;-75
2023/10/13 06:43:39;;;;;;;23.52;15.02;;;19.00;99.90;;;19.27;100.00;100359.59;5073148;28;20068;-74
2023/10/13 06:46:14;;;;;;;22.35;15.07;;;19.00;99.90;;;19.35;100.00;100363.69;5072917;28;20049;-75
2023/10/13 06:48:44;;;;;;;25.33;14.07;;;19.10;99.90;;;19.40;100.00;100347.34;5071547;28;20051;-84
2023/10/13 06:51:21;;;;;;;24.25;13.70;;;19.10;99.90;;;19.35;100.00;100342.22;5072688;28;20423;-79
2023/10/13 06:53:56;;;;;;;20.65;13.23;;;19.10;99.90;;;19.35;100.00;100336.00;5072964;28;20148;-79
2023/10/13 06:56:28;;;;;;;24.33;11.95;;;19.10;99.90;;;19.41;100.00;100336.56;5071011;28;20177;-76
2023/10/13 06:59:02;;;;;;;23.00;11.80;;;19.10;99.90;;;19.27;100.00;100295.22;5072804;28;20218;-74
2023/10/13 07:01:38;;;;;;;21.85;10.32;;;19.10;99.90;;;19.48;100.00;100334.44;5072748;28;20457;-74
2023/10/13 07:04:13;;;;;;;21.70;10.55;;;19.20;99.90;;;19.52;100.00;100344.06;5073296;28;20127;-71
2023/10/13 07:06:47;;;;;;;15.88;10.10;;;19.20;99.90;;;19.53;100.00;100341.31;5073156;28;20036;-74
2023/10/13 07:09:39;;;;;;;17.20;9.65;;;19.20;99.90;;;19.64;100.00;100343.47;5072618;28;20045;-75
2023/10/13 07:12:16;;;;;;;14.88;9.88;;;19.30;99.90;;;19.59;100.00;100334.75;5072429;28;20400;-71
2023/10/13 07:14:59;;;;;;;21.58;9.73;;;19.30;99.90;;;19.63;100.00;100333.66;5072876;28;20105;-73
2023/10/13 07:17:33;;;;;;;23.95;9.68;;;19.30;99.90;;;19.64;100.00;100332.75;5071376;28;20053;-73
2023/10/13 07:20:14;;;;;;;21.98;9.68;;;19.40;99.90;;;19.68;100.00;100323.59;5072527;28;20075;-77
2023/10/13 07:22:54;;;;;;;22.08;9.90;;;19.40;99.90;;;19.73;100.00;100316.16;5072621;28;20068;-75
2023/10/13 07:25:25;;;;;;;20.00;9.90;;;19.40;99.90;;;19.73;100.00;100297.38;5056293;28;20037;-77
2023/10/13 07:27:56;;;;;;;19.67;9.38;;;19.40;99.90;;;19.78;100.00;100320.34;5072171;28;20049;-79
2023/10/13 07:30:27;;;;;;;22.35;9.77;;;19.40;99.90;;;19.87;100.00;100302.91;5072611;28;20458;-77
2023/10/13 07:32:59;;;;;;;21.40;8.77;;;19.50;99.90;;;19.85;100.00;100294.06;5072420;28;20110;-74
2023/10/13 07:35:31;;;;;;;18.48;9.15;;;19.60;99.90;;;19.96;100.00;100315.84;5072456;28;20076;-75
2023/10/13 07:38:00;;;;;;;19.60;9.70;;;19.60;99.90;;;19.97;100.00;100295.25;5072120;28;20078;-75
2023/10/13 07:40:41;;;;;;;22.00;9.43;;;19.60;99.90;;;19.99;100.00;100307.66;5070758;28;20056;-74
2023/10/13 07:43:10;;;;;;;;;;;19.70;99.90;;;20.04;100.00;100300.22;5056747;28;20099;-75
2023/10/13 07:45:40;;;;;;;17.50;8.75;;;19.80;99.90;;;19.95;100.00;100313.25;5071073;28;19920;-77
2023/10/13 07:48:19;;;;;;;18.98;9.88;;;19.70;99.90;;;19.96;100.00;100301.56;5072373;28;20045;-78
2023/10/13 07:51:01;;;;;;;22.88;10.10;;;19.60;99.90;;;19.99;100.00;100310.34;5072316;28;20493;-76
2023/10/13 07:53:34;;;;;;;20.25;9.75;;;19.60;99.90;;;20.08;100.00;100283.00;5071705;28;20039;-77
2023/10/13 07:56:05;;;;;;;20.77;9.23;;;19.70;99.90;;;20.09;100.00;100294.63;5072482;28;20094;-77
2023/10/13 07:58:34;;;;;;;19.70;8.93;;;19.80;99.90;;;20.11;100.00;100284.66;5071801;28;20149;-77
2023/10/13 08:01:08;;;;;;;19.77;9.55;;;19.80;99.90;;;20.10;100.00;100316.00;5070728;28;20044;-76
2023/10/13 08:03:44;;;;;;;21.00;8.90;;;19.80;99.90;;;20.13;100.00;100298.88;5071929;28;20539;-76
2023/10/13 08:06:26;;;;;;;24.77;9.77;;;19.80;99.90;;;20.17;100.00;100292.41;5070633;28;20044;-76
2023/10/13 08:08:59;;;;;;;22.90;10.10;;;19.80;99.90;;;20.19;100.00;100312.88;5056431;28;20494;-76
2023/10/13 08:11:34;;;;;;;21.15;9.85;;;19.90;99.90;;;20.26;100.00;100282.06;5067299;28;20458;-76
2023/10/13 08:14:22;;;;;;;21.85;9.68;;;19.90;99.90;;;20.22;100.00;100291.25;5066570;28;20059;-77
2023/10/13 08:17:07;;;;;;;22.15;8.80;;;19.90;99.90;;;20.18;100.00;100270.88;5059194;28;20112;-77
2023/10/13 08:19:44;;;;;;;27.88;10.45;;;19.90;99.90;;;20.26;100.00;100279.38;5071729;28;20118;-76
2023/10/13 08:22:24;;;;;;;23.67;9.60;;;19.90;99.90;;;20.30;100.00;100259.47;5071735;28;20577;-77
2023/10/13 08:25:14;;;;;;;22.38;8.95;;;20.00;99.90;;;20.32;100.00;100257.56;5071676;28;20493;-75
2023/10/13 08:27:49;;;;;;;23.38;8.98;;;20.00;99.90;;;20.38;100.00;100267.94;5070561;28;20056;-76
2023/10/13 08:30:29;;;;;;;28.65;10.05;;;20.00;99.90;;;20.38;100.00;100269.78;5072082;28;20402;-78
2023/10/13 08:32:58;;;;;;;21.05;8.90;;;20.10;99.90;;;20.40;100.00;100309.03;5071692;28;20378;-78
2023/10/13 08:35:44;;;;;;;19.83;9.23;;;20.10;99.90;;;20.45;100.00;100269.38;5071975;28;20475;-78
2023/10/13 08:38:17;;;;;;;23.90;9.63;;;20.10;99.90;;;20.51;100.00;100265.47;5072021;28;20049;-79
2023/10/13 08:43:51;;;;;;;25.83;8.70;;;20.20;99.90;;;20.49;100.00;100246.75;5071631;28;20059;-77
2023/10/13 08:46:29;;;;;;;18.27;7.95;;;20.20;99.90;;;20.51;100.00;100241.31;5056427;28;20079;-78
2023/10/13 08:49:15;;;;;;;21.55;9.20;;;20.20;99.90;;;20.54;100.00;100251.88;5071604;28;20044;-77
2023/10/13 08:51:48;;;;;;;20.52;8.75;;;20.20;99.90;;;20.57;100.00;100252.59;5071832;28;20052;-78
2023/10/13 08:54:33;;;;;;;26.88;8.98;;;20.30;99.90;;;20.38;100.00;100229.50;5071101;28;20045;-77
2023/10/13 08:57:32;;;;;;;19.10;8.38;;;20.20;99.90;;;20.56;100.00;100240.09;5071181;28;20041;-77
2023/10/13 09:03:26;;;;;;;19.85;9.10;;;20.30;99.90;;;19.94;100.00;100094.91;5071701;28;20151;-77
2023/10/13 09:06:06;;;;;;;22.55;8.00;;;20.30;99.90;;;20.60;99.83;100225.53;5071191;28;20059;-77
2023/10/13 09:08:45;;;;;;;20.65;8.48;;;20.30;99.90;;;20.61;99.38;100216.50;5071617;28;20131;-78
2023/10/13 09:11:13;;;;;;;28.23;9.48;;;20.30;99.90;;;20.69;98.92;100221.47;5070819;28;20048;-77
2023/10/13 09:13:44;;;;;;;23.42;8.50;;;20.30;99.90;;;20.71;98.62;100214.19;5070385;28;20432;-78
2023/10/13 09:16:21;;;;;;;26.02;8.48;;;20.40;99.90;;;20.74;98.45;100237.31;5070239;28;20091;-77
2023/10/13 09:18:52;;;;;;;23.90;8.23;;;20.40;99.90;;;20.74;98.47;100197.00;5072686;28;20053;-78
2023/10/13 09:21:29;;;;;;;26.73;9.07;;;20.40;99.90;;;20.83;98.10;100197.34;5074878;28;20099;-79
2023/10/13 09:26:42;;;;;;;27.13;8.88;;;20.50;99.90;;;20.83;97.14;100205.41;5075095;28;20052;-77
2023/10/13 09:29:18;;;;;;;21.55;7.78;;;20.50;99.90;;;20.84;96.98;100217.91;5074663;28;20477;-76
2023/10/13 09:32:01;;;;;;;20.77;8.80;;;20.60;99.90;;;20.74;96.77;100152.19;5074404;28;20120;-78
2023/10/13 09:34:33;;;;;;;24.88;8.23;;;20.60;99.90;;;20.90;96.38;100179.94;5073370;28;20060;-78
2023/10/13 09:37:04;;;;;;;22.55;8.13;;;20.60;99.90;;;20.94;96.69;100188.69;5074824;28;20040;-79
2023/10/13 09:39:48;;;;;;;20.67;9.27;;;20.60;99.90;;;21.04;96.52;100192.59;5074778;28;20060;-79
2023/10/13 09:42:18;;;;;;;17.48;8.00;;;20.70;99.90;;;21.04;95.65;100192.59;5074462;28;20051;-78
2023/10/13 09:44:58;;;;;;;19.70;8.77;;;20.70;99.90;;;21.04;95.11;100189.91;5074429;28;20044;-78
2023/10/13 09:47:36;;;;;;;28.17;9.00;;;20.70;99.90;;;21.02;94.69;100197.22;5074975;28;20397;-77
2023/10/13 09:50:15;;;;;;;24.30;8.68;;;20.70;99.90;;;21.07;94.80;100162.81;5074370;28;20053;-78
2023/10/13 09:52:45;;;;;;;19.67;8.60;;;20.80;99.90;;;21.06;94.59;100185.31;5074286;28;20123;-77
2023/10/13 09:55:23;;;;;;;21.88;8.40;;;20.80;99.90;;;21.12;95.09;100193.88;5057528;28;20099;-78
2023/10/13 09:58:08;;;;;;;22.52;7.88;;;20.80;99.90;;;21.16;94.56;100181.97;5073868;28;20048;-79
2023/10/13 10:00:49;;;;;;;21.23;7.95;;;20.80;99.90;;;21.23;93.90;100169.03;5073697;28;20041;-77
2023/10/13 10:03:30;;;;;;;22.60;9.23;;;20.90;99.90;;;21.31;93.41;100153.31;5059307;28;20044;-79
2023/10/13 10:06:08;;;;;;;18.00;8.02;;;21.00;99.90;;;21.33;91.81;100159.47;5074080;28;20036;-78
2023/10/13 10:08:38;;;;;;;18.05;8.73;;;21.00;99.90;;;21.41;91.53;100166.13;5073699;28;20063;-78
2023/10/13 10:11:49;;;;;;;23.08;8.02;;;21.10;99.90;;;21.53;91.04;100137.59;5073759;28;20044;-78
2023/10/13 10:14:26;;;;;;;21.77;8.35;;;21.20;99.90;;;21.55;90.37;100162.59;5073783;28;20095;-77
2023/10/13 10:17:09;;;;;;;24.52;9.50;;;21.30;99.90;;;21.66;90.49;100165.50;5057371;28;20454;-77
2023/10/13 10:19:49;;;;;;;21.70;8.50;;;21.30;99.90;;;21.13;90.11;100049.50;5073226;28;20040;-78
2023/10/13 10:22:30;;;;;;;19.85;8.73;;;21.40;99.90;;;21.71;89.00;100141.00;5073653;28;20102;-78
2023/10/13 10:25:01;;;;;;;20.75;9.40;;;21.40;99.90;;;21.72;89.34;100158.88;5057899;28;20106;-77
2023/10/13 10:27:33;;;;;;;24.90;8.90;;;21.40;99.90;;;21.74;89.74;100148.91;5073445;28;20052;-78
2023/10/13 10:30:03;;;;;;;23.02;9.35;;;21.40;99.90;;;21.71;89.82;100155.31;5072865;28;20056;-79
2023/10/13 10:32:37;;;;;;;23.30;9.60;;;21.40;99.90;;;21.69;89.61;100132.13;5073388;28;20057;-77
2023/10/13 10:35:09;;;;;;;26.55;8.50;;;21.40;99.90;;;21.60;88.57;100132.72;5073766;28;20076;-76
2023/10/13 10:37:46;;;;;;;26.40;9.60;;;21.30;99.90;;;21.62;89.01;100128.09;5073173;28;20037;-78
2023/10/13 10:40:32;;;;;;;25.90;9.65;;;21.30;99.90;;;21.67;89.49;100151.09;5073138;28;20044;-78
2023/10/13 10:43:08;;;;;;;23.42;9.50;;;21.40;99.90;;;21.64;88.62;100151.25;5073881;28;20059;-78
2023/10/13 10:46:00;;;;;;;21.80;8.80;;;21.30;99.90;;;21.68;88.79;100130.41;5073451;28;20131;-76
2023/10/13 10:48:38;;;;;;;18.77;9.35;;;21.40;99.90;;;21.05;87.35;100008.75;5057446;28;20394;-79
2023/10/13 10:51:21;;;;;;;30.05;9.60;;;21.30;99.90;;;21.72;87.64;100131.97;5085516;28;20056;-79
2023/10/13 10:53:50;;;;;;;25.35;9.60;;;21.40;99.90;;;21.74;88.21;100125.50;5067818;28;20048;-78
2023/10/13 10:56:24;;;;;;;18.42;9.13;;;21.40;99.90;;;21.73;87.78;100120.22;5056757;28;20052;-78
2023/10/13 10:58:58;;;;;;;24.40;9.57;;;21.40;99.90;;;21.70;88.04;100107.81;5072840;28;20058;-76
2023/10/13 11:01:38;;;;;;;29.75;10.10;;;21.40;99.90;;;21.77;87.88;100102.91;5071800;28;20059;-76
2023/10/13 11:04:13;;;;;;;27.92;9.65;;;21.50;99.90;;;21.84;87.05;100125.81;5072761;28;20036;-79
2023/10/13 11:06:48;;;;;;;27.75;9.52;;;21.50;99.90;;;21.83;85.82;100151.91;5073091;28;20060;-78
2023/10/13 11:09:31;;;;;;;23.55;9.48;;;21.50;99.90;;;21.90;85.77;100103.91;5072991;28;20544;-79
2023/10/13 11:12:15;;;;;;;22.10;10.10;;;21.60;99.90;;;21.92;85.33;100086.69;5072949;28;20044;-78
2023/10/13 11:14:49;;;;;;;29.02;9.77;;;21.60;99.90;;;21.99;85.03;100093.41;5067861;28;20589;-78
2023/10/13 11:17:26;;;;;;;28.48;9.88;;;21.70;99.90;;;22.03;84.06;100072.53;5066984;28;20041;-79
2023/10/13 11:19:55;;;;;;;24.00;10.63;;;21.70;99.90;;;22.10;84.54;100087.34;5070903;28;20057;-78
2023/10/13 11:22:32;;;;;;;24.00;9.60;;;21.70;99.90;;;22.05;83.86;100124.47;5072397;28;20145;-78
2023/10/13 11:25:09;;;;;;;25.58;10.07;;;21.80;99.90;;;21.86;83.62;100043.13;5072258;28;20048;-78
2023/10/13 11:27:55;;;;;;;20.88;10.05;;;21.80;99.90;;;22.05;83.51;100105.63;5071980;28;20564;-79
2023/10/13 11:30:29;;;;;;;27.63;9.77;;;21.70;99.90;;;22.09;83.73;100109.84;5072353;28;20044;-78
2023/10/13 11:33:00;;;;;;;27.48;10.30;;;21.80;99.90;;;22.14;83.13;100105.91;5072043;28;20040;-78
2023/10/13 11:35:48;;;;;;;21.20;8.98;;;21.80;99.90;;;22.07;82.36;100095.63;5072554;28;20045;-79
2023/10/13 11:38:25;;;;;;;24.08;9.43;;;21.80;99.90;;;22.07;82.57;100123.44;5072239;28;20076;-79
2023/10/13 11:46:56;;;;;;;26.45;9.38;;;21.70;99.90;;;22.09;82.49;100108.03;5066485;28;20581;-77
2023/10/13 11:49:36;;;;;;;22.73;9.40;;;21.70;99.90;;;22.12;82.46;100098.91;5072211;28;20048;-79
2023/10/13 11:54:53;;;;;;;27.88;9.27;;;21.80;99.90;;;22.11;81.93;100102.53;5067315;28;20517;-77
2023/10/13 11:57:22;;;;;;;22.25;9.00;;;21.80;99.90;;;22.11;82.36;100103.41;5072365;28;20129;-79
2023/10/13 12:00:24;;;;;;;24.80;10.05;;;21.80;99.90;;;22.11;81.83;100089.94;5071996;28;20516;-79
2023/10/13 12:06:05;;;;;;;22.70;8.95;;;21.80;99.90;;;22.25;81.61;100086.34;5058713;28;20045;-79
2023/10/13 12:08:38;;;;;;;31.38;9.55;;;21.90;99.90;;;22.26;80.96;100106.97;5072633;28;20150;-79
2023/10/13 12:13:49;;;;;;;26.40;9.88;;;22.00;99.90;;;22.27;79.71;100093.38;5071755;28;20075;-80
2023/10/13 12:16:19;;;;;;;23.80;9.75;;;21.90;99.90;;;22.28;79.60;100084.31;5071988;28;20155;-79
2023/10/13 12:18:53;;;;;;;24.83;9.50;;;22.00;99.90;;;22.29;80.32;100078.00;5070974;28;20045;-79
2023/10/13 12:21:22;;;;;;;28.10;10.02;;;21.90;99.90;;;22.25;80.02;100068.38;5072308;28;20063;-80
2023/10/13 12:23:50;;;;;;;25.48;9.55;;;21.90;99.90;;;22.28;80.32;100072.66;5072181;28;20068;-79
2023/10/13 12:26:20;;;;;;;26.95;10.02;;;21.90;99.90;;;22.22;81.00;100073.94;5072034;28;20152;-79